Time;durP1;ratioP1;P1;durP2;ratioP2;P2;SDS_P1;SDS_P2;PMS_P1;PMS_P2;Temp;Humidity;BMP_temperature;BMP_pressure;BME280_temperature;BME280_humidity;BME280_pressure;Samples;Min_cycle;Max_cycle;Signal;HPM_P1;HPM_P2
2022/04/01 00:00:31;;;;;;;2.92;1.98;;;0.90;99.90;;;;;;5063459;28;20123;-79
2022/04/01 00:02:57;;;;;;;2.65;1.95;;;0.90;99.90;;;;;;5054017;28;20063;-80
2022/04/01 00:05:22;;;;;;;5.18;2.47;;;0.90;99.90;;;;;;5049182;28;20459;-79
2022/04/01 00:07:48;;;;;;;3.78;2.17;;;1.00;99.90;;;;;;5066260;28;20036;-79
2022/04/01 00:10:14;;;;;;;3.55;1.85;;;0.90;99.90;;;;;;5069554;28;20405;-79
2022/04/01 00:12:46;;;;;;;2.50;1.90;;;0.90;99.90;;;;;;5060340;28;20044;-79
2022/04/01 00:15:13;;;;;;;2.30;1.67;;;0.90;99.90;;;;;;5068387;28;20086;-79
2022/04/01 00:17:40;;;;;;;1.77;1.40;;;1.00;99.90;;;;;;5060831;28;20040;-79
2022/04/01 00:20:06;;;;;;;2.53;1.60;;;1.00;99.90;;;;;;5066787;28;20510;-79
2022/04/01 00:22:32;;;;;;;1.92;1.73;;;1.00;99.90;;;;;;5068094;28;20047;-79
2022/04/01 00:24:58;;;;;;;3.25;1.50;;;1.00;99.90;;;;;;5043845;28;20040;-78
2022/04/01 00:27:24;;;;;;;3.58;1.80;;;1.10;99.90;;;;;;5060667;28;20120;-79
2022/04/01 00:29:49;;;;;;;3.03;1.40;;;1.10;99.90;;;;;;5061980;28;20116;-79
2022/04/01 00:32:15;;;;;;;2.45;1.73;;;1.10;99.90;;;;;;5064144;28;20052;-79
2022/04/01 00:34:41;;;;;;;4.22;1.90;;;1.10;99.90;;;;;;5068467;28;20048;-78
2022/04/01 00:37:06;;;;;;;2.20;1.60;;;1.10;99.90;;;;;;5063487;28;20068;-78
2022/04/01 00:39:32;;;;;;;3.13;1.60;;;1.10;99.90;;;;;;5069010;28;20044;-79
2022/04/01 00:42:00;;;;;;;3.00;1.80;;;1.10;99.90;;;;;;5046155;28;20648;-78
2022/04/01 00:44:33;;;;;;;4.07;1.67;;;1.10;99.90;;;;;;5064067;28;20044;-78
2022/04/01 00:47:02;;;;;;;1.95;1.73;;;1.10;99.90;;;;;;5067198;28;20067;-78
2022/04/01 00:49:28;;;;;;;3.30;1.90;;;1.20;99.90;;;;;;5071076;28;20047;-78
2022/04/01 00:51:56;;;;;;;3.55;1.90;;;1.20;99.90;;;;;;5073504;28;20028;-78
2022/04/01 00:54:23;;;;;;;2.53;1.95;;;1.20;99.90;;;;;;5073172;28;20071;-79
2022/04/01 00:56:48;;;;;;;2.00;1.30;;;1.10;99.90;;;;;;5067234;28;20040;-79
2022/04/01 00:59:14;;;;;;;3.03;1.83;;;1.20;99.90;;;;;;5074001;28;20055;-79
2022/04/01 01:01:43;;;;;;;3.53;1.88;;;1.20;99.90;;;;;;5068197;28;20043;-78
2022/04/01 01:04:09;;;;;;;2.85;1.70;;;1.20;99.90;;;;;;5064784;28;20040;-78
2022/04/01 01:06:41;;;;;;;1.85;1.63;;;1.20;99.90;;;;;;5069861;28;20033;-78
2022/04/01 01:09:07;;;;;;;4.63;1.57;;;1.30;99.90;;;;;;5070752;28;20357;-78
2022/04/01 01:11:35;;;;;;;2.83;1.42;;;1.30;99.90;;;;;;5067130;28;20287;-78
2022/04/01 01:14:07;;;;;;;2.45;1.70;;;1.30;99.90;;;;;;5057778;28;20367;-78
2022/04/01 01:16:34;;;;;;;3.10;1.60;;;1.40;99.90;;;;;;5055328;28;20474;-78
2022/04/01 01:19:12;;;;;;;2.70;1.20;;;1.40;99.90;;;;;;5068332;28;20051;-78
2022/04/01 01:21:38;;;;;;;1.63;1.52;;;1.50;99.90;;;;;;5068223;28;20123;-78
2022/04/01 01:24:07;;;;;;;3.20;1.60;;;1.40;99.90;;;;;;5074990;28;20072;-78
2022/04/01 01:26:35;;;;;;;1.70;1.42;;;1.60;99.90;;;;;;5059001;28;20044;-78
2022/04/01 01:29:04;;;;;;;2.97;1.50;;;1.70;99.90;;;;;;5067992;28;20040;-78
2022/04/01 01:31:30;;;;;;;2.92;1.70;;;1.90;99.90;;;;;;5072005;28;20040;-78
2022/04/01 01:33:57;;;;;;;3.33;1.58;;;1.90;99.90;;;;;;5075261;28;20049;-78
2022/04/01 01:36:24;;;;;;;2.75;1.55;;;1.90;99.90;;;;;;5072960;28;20056;-78
2022/04/01 01:38:50;;;;;;;2.95;1.42;;;1.70;99.90;;;;;;5055392;28;20050;-78
2022/04/01 01:41:16;;;;;;;2.90;1.42;;;1.70;99.90;;;;;;5075635;28;20390;-78
2022/04/01 01:43:42;;;;;;;2.70;1.77;;;1.80;99.90;;;;;;5069365;28;20029;-78
2022/04/01 01:46:09;;;;;;;3.30;1.70;;;1.90;99.90;;;;;;5073072;28;20067;-78
2022/04/01 01:48:34;;;;;;;3.22;1.50;;;1.70;99.90;;;;;;5052849;28;20527;-78
2022/04/01 01:56:29;;;;;;;1.75;1.42;;;1.80;99.90;;;;;;5074160;28;20536;-78
2022/04/01 01:58:54;;;;;;;1.85;1.67;;;1.80;99.90;;;;;;5067816;28;20040;-78
2022/04/01 02:01:21;;;;;;;2.85;1.60;;;1.90;99.90;;;;;;5068179;28;20060;-78
2022/04/01 02:03:47;;;;;;;2.85;1.60;;;2.00;99.90;;;;;;5064906;28;20380;-78
2022/04/01 02:06:14;;;;;;;4.53;1.63;;;2.00;99.90;;;;;;5071656;28;20404;-78
2022/04/01 02:08:40;;;;;;;2.72;1.55;;;2.10;99.90;;;;;;5061637;28;20037;-78
2022/04/01 02:11:07;;;;;;;2.22;1.60;;;2.10;99.90;;;;;;5070766;28;20124;-78
2022/04/01 02:13:33;;;;;;;1.85;1.30;;;2.00;99.90;;;;;;5071177;28;20040;-78
2022/04/01 02:15:59;;;;;;;1.90;1.10;;;2.00;99.90;;;;;;5068691;28;20083;-78
2022/04/01 02:18:25;;;;;;;2.28;1.80;;;2.00;99.90;;;;;;5059287;28;20102;-78
2022/04/01 02:20:50;;;;;;;3.47;1.80;;;1.90;99.90;;;;;;5066786;28;20477;-78
2022/04/01 02:23:19;;;;;;;2.08;1.60;;;2.00;99.90;;;;;;5060684;28;20127;-78
2022/04/01 02:25:45;;;;;;;4.20;1.88;;;2.10;99.90;;;;;;5045126;28;20071;-78
2022/04/01 02:28:12;;;;;;;2.10;1.65;;;2.00;99.90;;;;;;5067456;28;20040;-78
2022/04/01 02:30:38;;;;;;;3.15;1.80;;;2.00;99.90;;;;;;5069125;28;20036;-78
2022/04/01 02:33:06;;;;;;;4.47;1.88;;;2.00;99.90;;;;;;5047841;28;20142;-78
2022/04/01 02:35:32;;;;;;;3.28;1.67;;;1.90;99.90;;;;;;5060668;28;20044;-78
2022/04/01 02:37:57;;;;;;;3.38;1.77;;;1.90;99.90;;;;;;5044549;28;20092;-78
2022/04/01 02:40:23;;;;;;;3.58;1.80;;;1.90;99.90;;;;;;5045736;28;20080;-78
2022/04/01 02:42:53;;;;;;;4.93;1.92;;;1.80;99.90;;;;;;5074528;28;20044;-78
2022/04/01 02:45:24;;;;;;;2.47;1.70;;;1.90;99.90;;;;;;5070577;28;20059;-78
2022/04/01 02:47:50;;;;;;;4.03;1.73;;;1.80;99.90;;;;;;5086463;28;20039;-78
2022/04/01 02:50:16;;;;;;;3.20;1.52;;;1.80;99.90;;;;;;5069189;28;20436;-78
2022/04/01 02:52:42;;;;;;;2.00;1.70;;;1.70;99.90;;;;;;5068651;28;20049;-78
2022/04/01 02:55:09;;;;;;;3.13;1.63;;;1.60;99.90;;;;;;5064755;28;20040;-78
2022/04/01 02:57:34;;;;;;;3.40;1.88;;;1.60;99.90;;;;;;5050885;28;20122;-78
2022/04/01 03:00:00;;;;;;;3.03;1.45;;;1.60;99.90;;;;;;5067734;28;20040;-78
2022/04/01 03:02:26;;;;;;;3.25;1.90;;;1.60;99.90;;;;;;5067749;28;20044;-78
2022/04/01 03:04:52;;;;;;;2.08;1.80;;;1.60;99.90;;;;;;5067048;28;20036;-78
2022/04/01 03:07:18;;;;;;;3.15;1.65;;;1.60;99.90;;;;;;5069150;28;20440;-78
2022/04/01 03:09:44;;;;;;;2.03;1.67;;;1.60;99.90;;;;;;5064329;28;20108;-76
2022/04/01 03:12:11;;;;;;;4.22;1.67;;;1.60;99.90;;;;;;5066395;28;20497;-77
2022/04/01 03:14:37;;;;;;;2.75;1.45;;;1.60;99.90;;;;;;5067384;28;20101;-77
2022/04/01 03:17:03;;;;;;;1.85;1.48;;;1.60;99.90;;;;;;5065043;28;20047;-77
2022/04/01 03:19:29;;;;;;;3.17;1.55;;;1.60;99.90;;;;;;5069568;28;20048;-77
2022/04/01 03:21:55;;;;;;;2.03;1.77;;;1.60;99.90;;;;;;5068332;28;20059;-77
2022/04/01 03:24:21;;;;;;;3.38;1.90;;;1.60;99.90;;;;;;5053570;28;20044;-77
2022/04/01 03:26:46;;;;;;;2.70;1.40;;;1.50;99.90;;;;;;5066180;28;20059;-77
2022/04/01 03:29:12;;;;;;;4.45;1.90;;;1.50;99.90;;;;;;5068337;28;20043;-77
2022/04/01 03:31:38;;;;;;;2.17;1.48;;;1.60;99.90;;;;;;5050078;28;20737;-77
2022/04/01 03:34:05;;;;;;;2.95;1.27;;;1.60;99.90;;;;;;5044667;28;20040;-77
2022/04/01 03:36:31;;;;;;;2.67;1.92;;;1.50;99.90;;;;;;5069244;28;20639;-77
2022/04/01 03:38:57;;;;;;;1.63;1.30;;;1.60;99.90;;;;;;5059470;28;20086;-77
2022/04/01 03:41:23;;;;;;;2.60;1.45;;;1.60;99.90;;;;;;5061343;28;20083;-76
2022/04/01 03:43:51;;;;;;;4.15;1.30;;;1.60;99.90;;;;;;5068815;28;20033;-77
2022/04/01 03:46:20;;;;;;;2.53;1.42;;;1.60;99.90;;;;;;5067591;28;20103;-77
2022/04/01 03:48:52;;;;;;;3.15;1.70;;;1.60;99.90;;;;;;5052198;28;20166;-77
2022/04/01 03:51:24;;;;;;;3.78;1.70;;;1.60;99.90;;;;;;5049187;28;20541;-77
2022/04/01 03:54:02;;;;;;;2.88;1.05;;;1.60;99.90;;;;;;5042013;28;20501;-76
2022/04/01 03:56:36;;;;;;;2.53;1.55;;;1.60;99.90;;;;;;5055660;28;20029;-77
2022/04/01 03:59:04;;;;;;;4.00;1.88;;;1.60;99.90;;;;;;5060928;28;20040;-77
2022/04/01 04:01:29;;;;;;;2.05;1.52;;;1.60;99.90;;;;;;5062983;28;20343;-77
2022/04/01 04:04:00;;;;;;;3.92;1.75;;;1.60;99.90;;;;;;5069879;28;20051;-77
2022/04/01 04:06:26;;;;;;;6.68;1.50;;;1.70;99.90;;;;;;5063858;28;20055;-77
2022/04/01 04:08:57;;;;;;;3.35;1.58;;;1.70;99.90;;;;;;5064805;28;20040;-77
2022/04/01 04:11:28;;;;;;;4.00;1.60;;;1.70;99.90;;;;;;5069379;28;20085;-77
2022/04/01 04:13:55;;;;;;;3.45;1.50;;;1.70;99.90;;;;;;5067321;28;20036;-77
2022/04/01 04:16:31;;;;;;;3.33;1.27;;;1.70;99.90;;;;;;5066394;28;20037;-77
2022/04/01 04:19:16;;;;;;;3.47;1.23;;;1.70;99.90;;;;;;5062993;28;20527;-78
2022/04/01 04:22:14;;;;;;;1.95;1.30;;;1.70;99.90;;;;;;5059286;28;20060;-78
2022/04/01 04:24:53;;;;;;;3.33;1.42;;;1.70;99.90;;;;;;5058707;28;20041;-78
2022/04/01 04:27:26;;;;;;;2.78;1.80;;;1.80;99.90;;;;;;5067582;28;20534;-78
2022/04/01 04:29:52;;;;;;;3.47;1.20;;;1.70;99.90;;;;;;5067471;28;20040;-78
2022/04/01 04:32:34;;;;;;;3.05;1.33;;;1.80;99.90;;;;;;5067321;28;20135;-78
2022/04/01 04:35:05;;;;;;;3.33;1.38;;;1.80;99.90;;;;;;5061520;28;20049;-78
2022/04/01 04:37:34;;;;;;;3.47;1.73;;;1.80;99.90;;;;;;5049092;28;20770;-78
2022/04/01 04:40:01;;;;;;;3.85;1.25;;;1.80;99.90;;;;;;5069024;28;20040;-78
2022/04/01 04:42:27;;;;;;;4.45;1.30;;;1.80;99.90;;;;;;5050754;28;20044;-78
2022/04/01 04:44:53;;;;;;;1.95;1.33;;;1.80;99.90;;;;;;5069300;28;20451;-78
2022/04/01 04:47:28;;;;;;;4.20;1.10;;;1.70;99.90;;;;;;5044832;28;20473;-78
2022/04/01 04:49:56;;;;;;;2.50;1.10;;;1.70;99.90;;;;;;5058121;28;20051;-78
2022/04/01 04:52:28;;;;;;;1.75;1.08;;;1.70;99.90;;;;;;5068549;28;20079;-77
2022/04/01 04:54:55;;;;;;;;;;;1.80;99.90;;;;;;5064938;28;20052;-78
2022/04/01 04:57:21;;;;;;;2.83;1.17;;;1.80;99.90;;;;;;5043684;28;19916;-78
2022/04/01 04:59:48;;;;;;;3.20;1.23;;;1.70;99.90;;;;;;5052113;28;20045;-78
2022/04/01 05:02:33;;;;;;;2.03;1.17;;;1.70;99.90;;;;;;5062411;28;20048;-78
2022/04/01 05:05:26;;;;;;;2.13;1.10;;;1.70;99.90;;;;;;5067092;28;20748;-78
2022/04/01 05:08:21;;;;;;;2.28;1.10;;;1.80;99.90;;;;;;5063038;28;20068;-78
2022/04/01 05:10:53;;;;;;;3.90;1.40;;;1.80;99.90;;;;;;5063383;28;20123;-78
2022/04/01 05:13:47;;;;;;;4.03;1.20;;;1.80;99.90;;;;;;5059528;28;20463;-78
2022/04/01 05:16:55;;;;;;;2.55;1.60;;;1.70;99.90;;;;;;5064154;28;20051;-78
2022/04/01 05:19:27;;;;;;;2.78;1.17;;;1.70;99.90;;;;;;5048920;28;20036;-78
2022/04/01 05:22:04;;;;;;;2.38;1.20;;;1.70;99.90;;;;;;5080562;28;20132;-77
2022/04/01 05:24:44;;;;;;;2.60;1.27;;;1.70;99.90;;;;;;5058448;28;20498;-77
2022/04/01 05:27:32;;;;;;;3.17;1.20;;;1.70;99.90;;;;;;5043999;28;20043;-77
2022/04/01 05:30:13;;;;;;;2.83;1.00;;;1.70;99.90;;;;;;5039508;28;20094;-77
2022/04/01 05:32:44;;;;;;;4.13;1.13;;;1.70;99.90;;;;;;5058946;28;20040;-78
2022/04/01 05:35:09;;;;;;;2.70;1.67;;;1.70;99.90;;;;;;5066968;28;20094;-78
2022/04/01 05:37:36;;;;;;;3.03;1.10;;;1.70;99.90;;;;;;5066038;28;20056;-77
2022/04/01 05:40:07;;;;;;;3.88;1.10;;;1.70;99.90;;;;;;5073092;28;20059;-77
2022/04/01 05:42:33;;;;;;;3.30;1.30;;;1.80;99.90;;;;;;5048926;28;20037;-77
2022/04/01 05:45:00;;;;;;;1.38;0.85;;;1.90;99.90;;;;;;5055357;28;20081;-77
2022/04/01 05:47:30;;;;;;;2.83;1.20;;;1.90;99.90;;;;;;5046115;28;20045;-77
2022/04/01 05:49:58;;;;;;;3.88;1.27;;;1.90;99.90;;;;;;5068947;28;20052;-77
2022/04/01 05:52:24;;;;;;;4.97;1.50;;;1.90;99.90;;;;;;5070240;22;20053;-80
2022/04/01 05:54:51;;;;;;;4.30;1.20;;;1.90;99.90;;;;;;5057004;28;20052;-82
2022/04/01 05:57:20;;;;;;;2.70;1.20;;;2.00;99.90;;;;;;5026407;28;20041;-80
2022/04/01 05:59:46;;;;;;;3.25;1.50;;;2.00;99.90;;;;;;5046240;28;20041;-79
2022/04/01 06:02:44;;;;;;;4.72;1.40;;;2.10;99.90;;;;;;5032080;28;20148;-79
2022/04/01 06:05:25;;;;;;;2.38;1.17;;;2.10;99.90;;;;;;5035140;28;20048;-79
2022/04/01 06:07:59;;;;;;;2.08;1.20;;;2.10;99.90;;;;;;5050140;28;20487;-80
2022/04/01 06:10:40;;;;;;;4.90;1.65;;;2.20;99.90;;;;;;5036031;28;20048;-80
2022/04/01 06:13:24;;;;;;;2.95;1.40;;;2.20;99.90;;;;;;5018998;28;20091;-79
2022/04/01 06:16:07;;;;;;;2.47;1.23;;;2.20;99.90;;;;;;5059553;28;20040;-80
2022/04/01 06:19:03;;;;;;;2.53;1.00;;;2.20;99.90;;;;;;5057994;28;20049;-79
2022/04/01 06:21:36;;;;;;;3.60;1.55;;;2.30;99.90;;;;;;5009367;28;20056;-79
2022/04/01 06:24:10;;;;;;;6.18;1.35;;;2.30;99.90;;;;;;5030706;28;20044;-80
2022/04/01 06:26:54;;;;;;;3.55;1.20;;;2.40;99.90;;;;;;5050389;28;20090;-80
2022/04/01 06:29:32;;;;;;;4.05;1.42;;;2.40;99.90;;;;;;5051460;28;20041;-79
2022/04/01 06:32:12;;;;;;;1.65;1.08;;;2.40;99.90;;;;;;5055004;28;20036;-79
2022/04/01 06:35:03;;;;;;;2.85;1.10;;;2.40;99.90;;;;;;5051288;28;20106;-81
2022/04/01 06:37:32;;;;;;;1.77;1.00;;;2.50;99.90;;;;;;5051177;28;20170;-80
2022/04/01 06:40:03;;;;;;;1.88;1.02;;;2.50;99.90;;;;;;5033025;28;20080;-80
2022/04/01 06:42:31;;;;;;;2.20;1.10;;;2.50;99.90;;;;;;5054909;28;20052;-80
2022/04/01 06:44:58;;;;;;;2.70;1.35;;;2.50;99.90;;;;;;5028854;28;20673;-80
2022/04/01 06:47:23;;;;;;;1.40;1.30;;;2.50;99.90;;;;;;5036412;28;20041;-81
2022/04/01 06:49:49;;;;;;;2.53;0.90;;;2.50;99.90;;;;;;5037189;28;20037;-80
2022/04/01 06:52:16;;;;;;;2.55;1.30;;;2.50;99.90;;;;;;5047479;28;20497;-80
2022/04/01 06:54:41;;;;;;;1.92;1.10;;;2.60;99.90;;;;;;5042857;28;20107;-80
2022/04/01 06:57:07;;;;;;;2.17;1.20;;;2.50;99.90;;;;;;5041453;28;20037;-80
2022/04/01 06:59:34;;;;;;;2.70;1.30;;;2.70;99.90;;;;;;5047095;28;20036;-81
2022/04/01 07:02:00;;;;;;;1.70;1.02;;;2.60;99.90;;;;;;5051093;28;20513;-81
2022/04/01 07:04:26;;;;;;;2.38;1.10;;;2.60;99.90;;;;;;5051357;28;20037;-81
2022/04/01 07:06:51;;;;;;;6.20;1.70;;;2.60;99.90;;;;;;5044398;28;20037;-81
2022/04/01 07:09:17;;;;;;;3.38;1.38;;;2.60;99.90;;;;;;5055056;28;20116;-81
2022/04/01 07:11:42;;;;;;;3.63;1.00;;;2.70;99.90;;;;;;5035870;28;20060;-81
2022/04/01 07:14:08;;;;;;;3.10;1.35;;;2.70;99.90;;;;;;5041275;28;20129;-80
2022/04/01 07:16:33;;;;;;;2.13;1.13;;;2.60;99.90;;;;;;5052420;28;20127;-81
2022/04/01 07:19:00;;;;;;;3.17;1.30;;;2.70;99.90;;;;;;5047560;28;20132;-81
2022/04/01 07:21:26;;;;;;;3.13;1.20;;;2.70;99.90;;;;;;5029736;28;20044;-80
2022/04/01 07:23:52;;;;;;;3.58;1.40;;;2.70;99.90;;;;;;5051537;28;20573;-81
2022/04/01 07:26:18;;;;;;;3.50;1.50;;;2.90;99.90;;;;;;5051422;28;20079;-80
2022/04/01 07:28:44;;;;;;;5.18;1.35;;;2.80;99.90;;;;;;5050882;28;20045;-81
2022/04/01 07:33:54;;;;;;;1.35;1.25;;;3.00;99.90;;;;;;5043677;28;20119;-81
2022/04/01 07:36:23;;;;;;;5.15;1.38;;;2.90;99.90;;;;;;5032984;28;20079;-81
2022/04/01 07:38:48;;;;;;;1.95;1.13;;;2.90;99.90;;;;;;5031961;28;20133;-82
2022/04/01 07:41:14;;;;;;;2.92;1.58;;;3.10;99.90;;;;;;5034408;28;20120;-81
2022/04/01 07:43:39;;;;;;;2.22;1.33;;;3.10;99.90;;;;;;5051777;28;20043;-81
2022/04/01 07:46:05;;;;;;;2.63;1.30;;;3.00;99.90;;;;;;5054957;28;20119;-81
2022/04/01 07:48:31;;;;;;;2.80;1.50;;;3.10;99.90;;;;;;5053076;28;20029;-81
2022/04/01 07:50:56;;;;;;;2.83;1.33;;;3.10;99.90;;;;;;5043374;28;20054;-81
2022/04/01 07:53:22;;;;;;;2.55;1.63;;;2.90;99.90;;;;;;5027252;28;20548;-81
2022/04/01 07:55:50;;;;;;;3.47;1.40;;;2.90;99.90;;;;;;5025994;28;20527;-78
2022/04/01 07:58:18;;;;;;;1.52;1.35;;;2.80;99.90;;;;;;5048314;28;20509;-77
2022/04/01 08:00:44;;;;;;;3.00;1.60;;;3.20;99.90;;;;;;5050203;28;20072;-79
2022/04/01 08:03:10;;;;;;;3.92;1.40;;;3.00;99.90;;;;;;5031813;28;20099;-80
2022/04/01 08:05:36;;;;;;;5.18;1.50;;;3.10;99.90;;;;;;5044449;28;20044;-80
2022/04/01 08:08:01;;;;;;;3.90;1.73;;;3.20;99.90;;;;;;5050414;28;20444;-80
2022/04/01 08:10:27;;;;;;;2.75;1.45;;;3.30;99.90;;;;;;5051080;28;20048;-80
2022/04/01 08:12:52;;;;;;;3.72;1.60;;;3.20;99.90;;;;;;5050009;28;20045;-80
2022/04/01 08:15:18;;;;;;;2.97;1.52;;;3.20;99.90;;;;;;5046461;28;20041;-79
2022/04/01 08:17:44;;;;;;;3.22;1.65;;;3.30;99.90;;;;;;5044144;28;20646;-80
2022/04/01 08:20:12;;;;;;;3.20;2.15;;;3.40;99.90;;;;;;5034208;28;20083;-80
2022/04/01 08:22:38;;;;;;;3.75;2.55;;;3.30;99.90;;;;;;5046962;28;20033;-79
2022/04/01 08:25:04;;;;;;;3.22;2.35;;;3.20;99.90;;;;;;5050524;28;20037;-80
2022/04/01 08:27:30;;;;;;;2.47;2.22;;;2.90;99.90;;;;;;5033764;28;20480;-80
2022/04/01 08:29:59;;;;;;;5.18;2.47;;;2.90;99.90;;;;;;5050473;28;20117;-79
2022/04/01 08:32:26;;;;;;;4.40;3.00;;;2.90;99.90;;;;;;5031942;28;20051;-80
2022/04/01 08:34:52;;;;;;;5.55;3.17;;;2.70;99.90;;;;;;5043391;28;20052;-80
2022/04/01 08:37:18;;;;;;;5.35;4.80;;;2.80;99.90;;;;;;5046052;28;20052;-79
2022/04/01 08:39:45;;;;;;;5.78;3.50;;;2.80;99.90;;;;;;5049716;28;20075;-79
2022/04/01 08:42:11;;;;;;;5.65;4.15;;;2.90;99.90;;;;;;5031567;28;20084;-79
2022/04/01 08:44:41;;;;;;;6.80;4.38;;;3.00;99.90;;;;;;5043801;28;20047;-80
2022/04/01 08:47:08;;;;;;;3.83;3.33;;;2.60;99.90;;;;;;5048965;28;20051;-79
2022/04/01 08:49:34;;;;;;;6.57;4.65;;;2.60;99.90;;;;;;5021234;28;20057;-80
2022/04/01 08:52:00;;;;;;;4.28;3.67;;;2.70;99.90;;;;;;5049418;28;20522;-80
2022/04/01 08:54:26;;;;;;;6.50;5.15;;;2.40;99.90;;;;;;5046942;28;20061;-80
2022/04/01 08:56:51;;;;;;;6.22;4.22;;;2.30;99.90;;;;;;5043630;28;20033;-79
2022/04/01 08:59:17;;;;;;;7.30;4.88;;;2.50;99.90;;;;;;5070292;28;20087;-80
2022/04/01 09:01:44;;;;;;;7.47;5.03;;;2.40;99.90;;;;;;5047384;28;20059;-80
2022/04/01 09:04:19;;;;;;;6.80;4.70;;;2.30;99.90;;;;;;5046986;28;20036;-80
2022/04/01 09:06:45;;;;;;;7.90;5.88;;;2.30;99.90;;;;;;5028219;28;20053;-80
2022/04/01 09:09:25;;;;;;;6.95;5.10;;;2.30;99.90;;;;;;5050498;28;20458;-79
2022/04/01 09:12:24;;;;;;;6.65;4.90;;;2.30;99.90;;;;;;5034520;28;20064;-80
2022/04/01 09:14:52;;;;;;;6.78;4.35;;;2.80;99.90;;;;;;5011877;28;20555;-80
2022/04/01 09:17:18;;;;;;;6.30;4.97;;;2.70;99.90;;;;;;5052482;28;20047;-80
2022/04/01 09:19:44;;;;;;;5.00;4.07;;;2.80;99.90;;;;;;5048875;28;20032;-79
2022/04/01 09:22:18;;;;;;;6.97;4.55;;;3.10;99.90;;;;;;5034696;28;20135;-80
2022/04/01 09:24:59;;;;;;;4.90;3.30;;;3.10;99.90;;;;;;5053633;28;20029;-80
2022/04/01 09:27:46;;;;;;;3.22;2.95;;;3.50;99.90;;;;;;5052154;28;20053;-79
2022/04/01 09:30:21;;;;;;;3.45;3.15;;;2.90;99.90;;;;;;5052963;28;20044;-80
2022/04/01 09:32:49;;;;;;;3.78;3.42;;;3.30;99.90;;;;;;5059275;28;20112;-79
2022/04/01 09:35:17;;;;;;;4.20;3.60;;;3.00;99.90;;;;;;5049325;28;20506;-80
2022/04/01 09:37:45;;;;;;;5.00;3.38;;;2.90;99.90;;;;;;5051314;28;20080;-80
2022/04/01 09:40:20;;;;;;;6.63;4.20;;;3.10;99.90;;;;;;5057321;28;20091;-80
2022/04/01 09:42:52;;;;;;;5.18;3.70;;;3.30;99.90;;;;;;5038331;28;20055;-80
2022/04/01 09:45:32;;;;;;;5.10;3.10;;;3.00;99.90;;;;;;5026627;28;20029;-80
2022/04/01 09:48:00;;;;;;;3.97;3.38;;;3.10;99.90;;;;;;5057714;28;20562;-80
2022/04/01 09:50:33;;;;;;;5.53;3.53;;;3.00;99.90;;;;;;5046729;28;20037;-80
2022/04/01 09:53:12;;;;;;;4.18;2.85;;;3.10;99.90;;;;;;5045361;28;20367;-78
2022/04/01 09:55:40;;;;;;;5.60;4.00;;;3.30;99.90;;;;;;5046631;28;20053;-78
2022/04/01 09:58:07;;;;;;;4.03;3.47;;;3.80;99.90;;;;;;5036076;28;20052;-79
2022/04/01 10:00:34;;;;;;;5.53;3.20;;;3.50;99.90;;;;;;5051792;28;20041;-80
2022/04/01 10:02:59;;;;;;;4.93;3.70;;;3.30;99.90;;;;;;5046845;28;20049;-80
2022/04/01 10:05:26;;;;;;;5.15;4.00;;;3.30;99.90;;;;;;5042736;28;20043;-79
2022/04/01 10:07:55;;;;;;;5.18;3.70;;;3.20;99.90;;;;;;5046643;28;20036;-80
2022/04/01 10:10:21;;;;;;;4.75;3.70;;;3.60;99.90;;;;;;5034340;28;20099;-80
2022/04/01 10:12:47;;;;;;;5.20;2.72;;;3.70;99.90;;;;;;5023623;28;20037;-79
2022/04/01 10:15:13;;;;;;;5.30;3.58;;;4.10;99.90;;;;;;5038055;28;20052;-79
2022/04/01 10:17:41;;;;;;;5.30;3.50;;;3.80;99.90;;;;;;5051780;28;20151;-79
2022/04/01 10:20:08;;;;;;;4.18;3.42;;;3.50;99.90;;;;;;5056414;28;20378;-79
2022/04/01 10:22:35;;;;;;;5.13;3.92;;;3.30;99.90;;;;;;5056095;28;20052;-79
2022/04/01 10:25:20;;;;;;;6.28;3.60;;;2.90;99.90;;;;;;5048138;28;20159;-79
2022/04/01 10:27:51;;;;;;;4.40;3.05;;;2.90;99.90;;;;;;5053672;28;20041;-79
2022/04/01 10:30:19;;;;;;;3.38;2.95;;;2.90;99.90;;;;;;5042357;28;20084;-79
2022/04/01 10:32:47;;;;;;;4.65;3.10;;;2.80;99.90;;;;;;5043426;28;20411;-80
2022/04/01 10:35:37;;;;;;;3.58;3.15;;;2.90;99.90;;;;;;5048762;28;20385;-79
2022/04/01 10:38:05;;;;;;;4.97;3.40;;;2.80;99.90;;;;;;5032374;28;20036;-76
2022/04/01 10:40:32;;;;;;;4.45;3.45;;;2.80;99.90;;;;;;5044754;28;20072;-78
2022/04/01 10:43:14;;;;;;;4.13;2.92;;;2.90;99.90;;;;;;5026037;28;20036;-78
2022/04/01 10:45:55;;;;;;;3.75;2.72;;;2.90;99.90;;;;;;5025435;28;20064;-79
2022/04/01 10:51:39;;;;;;;2.70;2.35;;;2.70;99.90;;;;;;5050640;28;20132;-79
2022/04/01 10:54:14;;;;;;;5.47;2.92;;;2.80;99.90;;;;;;5055337;28;20472;-79
2022/04/01 10:56:41;;;;;;;4.45;2.47;;;2.80;99.90;;;;;;5064593;28;20049;-79
2022/04/01 10:59:22;;;;;;;3.30;2.40;;;3.00;99.90;;;;;;5064930;28;20368;-79
2022/04/01 11:01:53;;;;;;;4.80;2.25;;;3.30;99.90;;;;;;5068987;28;20033;-79
2022/04/01 11:04:19;;;;;;;2.47;1.92;;;3.70;99.90;;;;;;5034758;28;20037;-79
2022/04/01 11:07:02;;;;;;;2.80;2.47;;;4.00;99.90;;;;;;5023601;28;20059;-79
2022/04/01 11:09:40;;;;;;;4.15;2.08;;;3.80;99.90;;;;;;5039560;28;20033;-79
2022/04/01 11:12:15;;;;;;;2.53;1.67;;;3.70;99.90;;;;;;5020458;28;20087;-79
2022/04/01 11:14:59;;;;;;;3.45;2.20;;;4.10;99.90;;;;;;5023850;28;20383;-79
2022/04/01 11:17:49;;;;;;;3.05;1.75;;;4.00;99.90;;;;;;5023053;28;20041;-80
2022/04/01 11:20:32;;;;;;;2.53;1.50;;;4.00;99.90;;;;;;5051260;28;20044;-81
2022/04/01 11:23:00;;;;;;;2.55;1.67;;;4.00;99.90;;;;;;5057543;28;20402;-81
2022/04/01 11:25:31;;;;;;;1.50;1.40;;;3.90;99.90;;;;;;5048600;28;20048;-80
2022/04/01 11:28:08;;;;;;;1.40;1.30;;;4.00;99.90;;;;;;5051805;28;20121;-81
2022/04/01 11:30:41;;;;;;;2.25;1.70;;;3.70;99.90;;;;;;5023351;28;20047;-80
2022/04/01 11:33:12;;;;;;;2.10;1.80;;;3.60;99.90;;;;;;5038863;28;20486;-80
2022/04/01 11:35:41;;;;;;;2.67;1.80;;;3.90;99.90;;;;;;5051840;28;20131;-79
2022/04/01 11:38:08;;;;;;;2.67;1.65;;;3.50;99.90;;;;;;5051946;28;20041;-80
2022/04/01 11:40:36;;;;;;;2.67;1.70;;;3.40;99.90;;;;;;5043207;28;20037;-80
2022/04/01 11:43:10;;;;;;;2.00;1.52;;;3.50;99.90;;;;;;5041467;28;20045;-79
2022/04/01 11:45:43;;;;;;;3.90;2.15;;;3.70;99.90;;;;;;5036227;28;20045;-80
2022/04/01 11:48:21;;;;;;;3.53;1.90;;;3.60;99.90;;;;;;5023880;28;20048;-79
2022/04/01 11:50:51;;;;;;;3.70;1.58;;;3.90;99.90;;;;;;5021500;28;20042;-78
2022/04/01 11:53:35;;;;;;;2.53;1.80;;;4.50;99.90;;;;;;5028025;28;20049;-79
2022/04/01 11:56:01;;;;;;;2.88;1.80;;;4.70;99.90;;;;;;5051219;28;20048;-79
2022/04/01 11:58:33;;;;;;;3.65;1.58;;;5.00;99.90;;;;;;5050370;28;20386;-79
2022/04/01 12:00:58;;;;;;;2.33;1.60;;;5.00;99.90;;;;;;5049275;28;20128;-79
2022/04/01 12:03:24;;;;;;;4.03;1.67;;;4.80;99.90;;;;;;5041125;28;20124;-78
2022/04/01 12:08:41;;;;;;;2.88;1.83;;;5.10;99.90;;;;;;5039054;28;20029;-78
2022/04/01 12:08:44;;;;;;;3.30;1.80;;;5.20;99.90;;;;;;5044767;28;20045;-77
2022/04/01 12:11:10;;;;;;;3.83;1.80;;;5.20;99.90;;;;;;5043137;28;20048;-79
2022/04/01 12:13:42;;;;;;;3.05;1.65;;;5.50;99.90;;;;;;5027099;28;20430;-79
2022/04/01 12:16:07;;;;;;;3.58;1.85;;;5.50;99.90;;;;;;5049341;28;20475;-79
2022/04/01 12:18:35;;;;;;;1.88;1.63;;;5.10;99.90;;;;;;5047938;28;20041;-79
2022/04/01 12:21:01;;;;;;;5.00;1.90;;;4.90;99.90;;;;;;5043750;28;20036;-78
2022/04/01 12:23:35;;;;;;;2.70;1.77;;;4.80;99.90;;;;;;5040022;28;21711;-78
2022/04/01 12:26:01;;;;;;;4.00;2.22;;;4.70;99.90;;;;;;5040139;28;20135;-79
2022/04/01 12:28:36;;;;;;;3.80;1.98;;;5.00;99.90;;;;;;5047057;28;20044;-79
2022/04/01 12:31:02;;;;;;;3.95;1.85;;;5.20;99.90;;;;;;5046171;28;20405;-79
2022/04/01 12:33:31;;;;;;;1.73;1.60;;;5.10;99.90;;;;;;5041841;28;20037;-79
2022/04/01 12:36:08;;;;;;;3.92;2.10;;;5.50;99.90;;;;;;5041500;28;20041;-78
2022/04/01 12:38:39;;;;;;;3.75;2.28;;;5.30;99.90;;;;;;5045043;28;20053;-78
2022/04/01 12:41:07;;;;;;;2.23;1.70;;;5.10;99.90;;;;;;5049611;28;20044;-78
2022/04/01 12:43:35;;;;;;;2.58;1.80;;;5.30;99.90;;;;;;5043582;28;20037;-79
2022/04/01 12:46:15;;;;;;;3.15;2.08;;;5.30;99.90;;;;;;5023015;28;20048;-79
2022/04/01 12:48:57;;;;;;;3.05;1.83;;;5.20;99.90;;;;;;5028631;28;20498;-78
2022/04/01 12:51:35;;;;;;;3.03;1.58;;;5.40;99.90;;;;;;5039680;28;20037;-78
2022/04/01 12:54:12;;;;;;;2.63;1.70;;;5.50;99.90;;;;;;5042836;28;20127;-78
2022/04/01 12:56:43;;;;;;;2.47;1.45;;;5.70;99.90;;;;;;5030210;28;20041;-78
2022/04/01 12:59:17;;;;;;;3.17;1.50;;;5.30;99.90;;;;;;5027063;28;20045;-79
2022/04/01 13:01:45;;;;;;;4.30;1.98;;;5.10;99.90;;;;;;5045582;28;20033;-79
2022/04/01 13:04:19;;;;;;;8.93;1.80;;;5.20;99.90;;;;;;5042709;28;20479;-79
2022/04/01 13:07:09;;;;;;;2.22;1.42;;;5.40;99.90;;;;;;5046947;28;20041;-79
2022/04/01 13:09:58;;;;;;;4.78;2.13;;;5.50;99.90;;;;;;5048593;28;20073;-78
2022/04/01 13:12:39;;;;;;;2.10;1.30;;;5.30;99.90;;;;;;5045651;28;20112;-79
2022/04/01 13:15:05;;;;;;;2.65;1.58;;;5.20;99.90;;;;;;5048841;28;20457;-79
2022/04/01 13:17:52;;;;;;;4.07;1.80;;;5.00;99.90;;;;;;5032664;28;20053;-79
2022/04/01 13:20:23;;;;;;;2.88;1.80;;;5.10;99.90;;;;;;5045236;28;20051;-78
2022/04/01 13:22:49;;;;;;;3.33;2.15;;;5.10;99.90;;;;;;5048506;28;20080;-79
2022/04/01 13:25:15;;;;;;;2.45;1.50;;;5.00;99.90;;;;;;5048515;28;20079;-78